Metar Cercanos

 

LEPA - Palma De Mallorc, Spain
Distance from station: ONO 38km
Actualización: Sun, 17-Oct-2021 6:00pm CEST
Few Clouds
Few Clouds
 Viento del OSO
Viento: OSO 15 km/h
Temperatura: 23°C
Rocío: 17°C
Humedad: 69%
Barómetro: 1018 hPa
Clouds: Few Clouds
Visibility: 10 km
Cloud details: Few Clouds 762 m
2021/10/17 16:00 LEPA 171600Z 24008KT 210V270 9999 FEW025CB 23/17 Q1018 TEMPO 4000 SHRA
LEMH - Mahon/Menorca Is, Spain
Distance from station: ENE 105km
Actualización: Sun, 17-Oct-2021 6:00pm CEST
Few Clouds
Few Clouds
 Viento del ESE
Viento: ESE 9 km/h
Temperatura: 21°C
Rocío: 13°C
Humedad: 60%
Barómetro: 1019 hPa
Clouds: Few Clouds
Visibility: 10 km
Cloud details: Few Clouds 1219 m
2021/10/17 16:00 LEMH 171600Z 12005KT 100V170 9999 FEW040 21/13 Q1019
 
LEIB - Ibiza/Es Codola, Spain
Distance from station: OSO 165km
Actualización: Sun, 17-Oct-2021 6:00pm CEST
Lluvia débil, Parcialmente nuboso
Lluvia débil, Parcialmente nuboso
 Viento del N
Viento: N 9 km/h
Temperatura: 20°C
Rocío: 17°C
Humedad: 83%
Barómetro: 1018 hPa
Resumen: Lluvia débil
Clouds: Parcialmente nuboso
Visibility: 10 km
Cloud details: Few Clouds 1006 m
Parcialmente nuboso 1280 m
2021/10/17 16:00 LEIB 171600Z 35005KT 310V020 9999 -RA FEW033 SCT042 20/17 Q1018 NOSIG
LEBL - Barcelona Airpor, Spain
Distance from station: NNO 225km
Actualización: Sun, 17-Oct-2021 6:00pm CEST
Few Clouds
Few Clouds
 Viento del SSE
Viento: SSE 7 km/h
Temperatura: 21°C
Rocío: 16°C
Humedad: 73%
Barómetro: 1019 hPa
Clouds: Few Clouds
Visibility: 10 km
Cloud details: Few Clouds 914 m
2021/10/17 16:00 LEBL 171600Z 15004KT 120V190 9999 FEW030 21/16 Q1019 NOSIG
 
LEVC - Valencia (civ/Mi, Spain
Distance from station: NO 188km
Actualización: Sun, 17-Oct-2021 6:00pm CEST
Few Clouds
Few Clouds
 Viento del E
Viento: E 7 km/h
Temperatura: 20°C
Rocío: 17°C
Humedad: 83%
Barómetro: 1019 hPa
Clouds: Few Clouds
Visibility: 10 km
Cloud details: Few Clouds 457 m
2021/10/17 16:00 LEVC 171600Z 09004KT 040V210 9999 FEW015 20/17 Q1019 NOSIG
LEGE - Gerona/Costa Bra, Spain
Distance from station: N 276km
Actualización: Sun, 17-Oct-2021 6:00pm CEST
Few Clouds
Few Clouds
 Viento del S
Viento: S 15 km/h
Temperatura: 19°C
Rocío: 14°C
Humedad: 73%
Barómetro: 1019 hPa
Clouds: Few Clouds
Visibility: 10 km
Cloud details: Few Clouds 914 m
2021/10/17 16:00 LEGE 171600Z 17008KT 9999 FEW030 19/14 Q1019
 
LEAL - Alicante/El Alte, Spain
Distance from station: OSO 344km
Actualización: Sun, 17-Oct-2021 6:00pm CEST
Few Clouds
Few Clouds
 Viento del E
Viento: E 17 km/h
Temperatura: 22°C
Rocío: 18°C
Humedad: 78%
Barómetro: 1018 hPa
Clouds: Few Clouds
Visibility: 10 km
Cloud details: Few Clouds 305 m
2021/10/17 16:00 LEAL 171600Z 09009KT 060V120 9999 FEW010 22/18 Q1018 NOSIG
LEAM - Almeria Airport, Spain
Distance from station: SSO 56km
Actualización: Sun, 17-Oct-2021 6:00pm CEST
Few Clouds
Few Clouds
 Viento del SSE
Viento: SSE 19 km/h
Temperatura: 24°C
Rocío: 20°C
Humedad: 78%
Barómetro: 1017 hPa
Clouds: Few Clouds
Visibility: 10 km
Cloud details: Few Clouds 610 m
2021/10/17 16:00 LEAM 171600Z 16010KT 9999 FEW020 24/20 Q1017
 
LEZG - Zaragoza (mil/Ci, Spain
Distance from station: NO 431km
Actualización: Sun, 17-Oct-2021 6:00pm CEST
Parcialmente nuboso
Parcialmente nuboso
 Viento del N
Viento: N 6 km/h
Temperatura: 21°C
Rocío: 12°C
Humedad: 57%
Barómetro: 1019 hPa
Clouds: Parcialmente nuboso
Visibility: 10 km
Cloud details: Few Clouds 1829 m
Parcialmente nuboso 2438 m
2021/10/17 16:00 LEZG 171600Z 35003KT 320V040 9999 FEW060 SCT080 21/12 Q1019
LEMD - Madrid/Barajas, Spain
Distance from station: ONO 234km
Actualización: Sun, 17-Oct-2021 6:00pm CEST
Parcialmente nuboso
Parcialmente nuboso
 Viento del SSE
Viento: SSE 4 km/h
Temperatura: 23°C
Rocío: 12°C
Humedad: 50%
Barómetro: 1019 hPa
Clouds: Parcialmente nuboso
Visibility: 10 km
Cloud details: Parcialmente nuboso 1829 m
2021/10/17 16:00 LEMD 171600Z 16002KT 9999 SCT060 23/12 Q1019 NOSIG
 
LEGR - Granada Airport, Spain
Distance from station: OSO 62km
Actualización: Sun, 17-Oct-2021 6:00pm CEST
Few Clouds
Few Clouds
 Viento del N
Viento: N 17 km/h
Temperatura: 26°C
Rocío: 9°C
Humedad: 34%
Barómetro: 1018 hPa
Clouds: Few Clouds
Visibility: 10 km
Cloud details: Few Clouds 2438 m
2021/10/17 16:00 LEGR 171600Z 35009KT 9999 FEW080 26/09 Q1018
LEMG - Malaga (civ/Mil), Spain
Distance from station: OSO 227km
Actualización: Sun, 17-Oct-2021 6:00pm CEST
Despejado
Despejado
 Viento del SE
Viento: SE 13 km/h
Temperatura: 22°C
Rocío: 20°C
Humedad: 88%
Barómetro: 1017 hPa
Resumen: Despejado
Visibility: greater than 10 km
2021/10/17 16:00 LEMG 171600Z 13007KT 100V160 CAVOK 22/20 Q1017 NOSIG
 
LEZL - Sevilla (civ/Mil, Spain
Distance from station: S 318km
Actualización: Sun, 17-Oct-2021 6:00pm CEST
Despejado
Despejado
 Viento del SSO
Viento: SSO 6 km/h
Temperatura: 29°C
Rocío: 8°C
Humedad: 27%
Barómetro: 1017 hPa
Resumen: Despejado
Visibility: greater than 10 km
2021/10/17 16:00 LEZL 171600Z 20003KT 150V270 CAVOK 29/08 Q1017 NOSIG
LEVT - Vitoria, Spain
Distance from station: NO 226km
Actualización: Sun, 17-Oct-2021 6:00pm CEST
Muy nuboso
Muy nuboso
 Viento del SSE
Viento: SSE 7 km/h
Temperatura: 20°C
Rocío: 12°C
Humedad: 60%
Barómetro: 1018 hPa
Clouds: Muy nuboso
Visibility: 10 km
Cloud details: Parcialmente nuboso 1280 m
Muy nuboso 1524 m
2021/10/17 16:00 LEVT 171600Z 15004KT 9999 SCT042 BKN050 20/12 Q1018
 
LEBB - Bilbao/Sondica, Spain
Distance from station: NNO 235km
Actualización: Sun, 17-Oct-2021 6:00pm CEST
Muy nuboso
Muy nuboso
 Viento del NE
Viento: NE 7 km/h
Temperatura: 22°C
Rocío: 16°C
Humedad: 69%
Barómetro: 1017 hPa
Clouds: Muy nuboso
Visibility: 10 km
Cloud details: Few Clouds 1219 m
Muy nuboso 1676 m
2021/10/17 16:00 LEBB 171600Z 05004KT 010V080 9999 FEW040 BKN055 22/16 Q1017 NOSIG
LESO - San Sebastian/Fu, Spain
Distance from station: N 231km
Actualización: Sun, 17-Oct-2021 6:00pm CEST
Muy nuboso
Muy nuboso
 Viento del OSO
Viento: OSO 7 km/h
Temperatura: 21°C
Rocío: 16°C
Humedad: 73%
Barómetro: 1018 hPa
Clouds: Muy nuboso
Visibility: 10 km
Cloud details: Muy nuboso 1372 m
2021/10/17 16:00 LESO 171600Z 24004KT 200V290 9999 BKN045 21/16 Q1018
 
LEVD - Valladolid(Mil/C, Spain
Distance from station: ONO 239km
Actualización: Sun, 17-Oct-2021 6:00pm CEST
Few Clouds
Few Clouds
 Viento del OSO
Viento: OSO 13 km/h
Temperatura: 18°C
Rocío: 12°C
Humedad: 68%
Barómetro: 1019 hPa
Clouds: Few Clouds
Visibility: 10 km
Cloud details: Few Clouds 1219 m
2021/10/17 16:00 LEVD 171600Z 24007KT 9999 FEW040 18/12 Q1019
LESA - Salamanca (civ/M, Spain
Distance from station: ONO 349km
Actualización: Sun, 17-Oct-2021 6:00pm CEST
Muy nuboso
Muy nuboso
 Viento del OSO
Viento: OSO 17 km/h
Temperatura: 19°C
Rocío: 15°C
Humedad: 78%
Barómetro: 1020 hPa
Clouds: Muy nuboso
Visibility: 10 km
Cloud details: Parcialmente nuboso 610 m
Muy nuboso 792 m
Muy nuboso 1219 m
2021/10/17 16:00 LESA 171600Z 25009KT 230V290 9999 SCT020 BKN026 BKN040 19/15 Q1020
 
LEXJ - Santander/Paraya, Spain
Distance from station: NNO 247km
Actualización: Sun, 17-Oct-2021 6:00pm CEST
Muy nuboso
Muy nuboso
 Viento del NE
Viento: NE 7 km/h
Temperatura: 19°C
Rocío: 16°C
Humedad: 83%
Barómetro: 1017 hPa
Clouds: Muy nuboso
Visibility: 10 km
Cloud details: Muy nuboso 1676 m
2021/10/17 16:00 LEXJ 171600Z 05004KT 360V110 9999 BKN055 19/16 Q1017
LEAS - Asturias/Aviles, Spain
Distance from station: NO 214km
Actualización: Sun, 17-Oct-2021 6:00pm CEST
Few Clouds
Few Clouds
 Viento del varies
Viento: varies 4 km/h
Temperatura: 20°C
Rocío: 15°C
Humedad: 73%
Barómetro: 1017 hPa
Clouds: Few Clouds
Visibility: 10 km
Cloud details: Few Clouds 1036 m
2021/10/17 16:00 LEAS 171600Z VRB02KT 9999 FEW034 20/15 Q1017 NOSIG
 
LECO - La Coruna/Alvedr, Spain
Distance from station: ONO 222km
Actualización: Sun, 17-Oct-2021 6:00pm CEST
Despejado
Despejado
 Viento del S
Viento: S 13 km/h
Temperatura: 23°C
Rocío: 16°C
Humedad: 65%
Barómetro: 1016 hPa
Resumen: Despejado
Visibility: greater than 10 km
2021/10/17 16:00 LECO 171600Z 19007KT 160V220 CAVOK 23/16 Q1016 NOSIG
LEVX - Vigo/Peinador, Spain
Distance from station: O 214km
Actualización: Sun, 17-Oct-2021 6:00pm CEST
Muy nuboso
Muy nuboso
 Viento del S
Viento: S 9 km/h
Temperatura: 19°C
Rocío: 19°C
Humedad: 100%
Barómetro: 1017 hPa
Clouds: Muy nuboso
Visibility: 6 km
Cloud details: Muy nuboso 91 m
2021/10/17 16:00 LEVX 171600Z 19005KT 120V240 6000 BKN003 19/19 Q1017 TEMPO 3000 DZ BKN005